sensor_id;sensor_type;location;lat;lon;timestamp;temperature;humidity
27114;DHT22;14648;49.730;8.614;2022-12-19T00:00:47;-1.00;58.60
27114;DHT22;14648;49.730;8.614;2022-12-19T00:03:14;-1.00;58.60
27114;DHT22;14648;49.730;8.614;2022-12-19T00:05:40;-1.00;58.70
27114;DHT22;14648;49.730;8.614;2022-12-19T00:08:13;-1.00;58.60
27114;DHT22;14648;49.730;8.614;2022-12-19T00:10:40;-0.90;58.80
27114;DHT22;14648;49.730;8.614;2022-12-19T00:13:06;-0.90;58.80
27114;DHT22;14648;49.730;8.614;2022-12-19T00:15:35;-0.90;58.70
27114;DHT22;14648;49.730;8.614;2022-12-19T00:18:01;-1.00;58.80
27114;DHT22;14648;49.730;8.614;2022-12-19T00:20:26;-1.00;58.90
27114;DHT22;14648;49.730;8.614;2022-12-19T00:22:52;-1.00;58.90
27114;DHT22;14648;49.730;8.614;2022-12-19T00:25:20;-1.00;58.90
27114;DHT22;14648;49.730;8.614;2022-12-19T00:27:46;-1.00;59.00
27114;DHT22;14648;49.730;8.614;2022-12-19T00:30:12;-1.00;59.00
27114;DHT22;14648;49.730;8.614;2022-12-19T00:32:37;-0.90;59.10
27114;DHT22;14648;49.730;8.614;2022-12-19T00:35:03;-0.90;59.00
27114;DHT22;14648;49.730;8.614;2022-12-19T00:37:29;-0.90;59.10
27114;DHT22;14648;49.730;8.614;2022-12-19T00:39:55;-0.80;59.00
27114;DHT22;14648;49.730;8.614;2022-12-19T00:42:20;-0.80;58.90
27114;DHT22;14648;49.730;8.614;2022-12-19T00:44:46;-0.80;59.00
27114;DHT22;14648;49.730;8.614;2022-12-19T00:47:12;-0.80;59.00
27114;DHT22;14648;49.730;8.614;2022-12-19T00:49:37;-0.80;59.10
27114;DHT22;14648;49.730;8.614;2022-12-19T00:52:03;-0.80;59.10
27114;DHT22;14648;49.730;8.614;2022-12-19T00:54:29;-0.80;59.00
27114;DHT22;14648;49.730;8.614;2022-12-19T00:56:54;-0.70;59.20
27114;DHT22;14648;49.730;8.614;2022-12-19T00:59:20;-0.70;59.20
27114;DHT22;14648;49.730;8.614;2022-12-19T01:01:45;-0.70;59.20
27114;DHT22;14648;49.730;8.614;2022-12-19T01:04:12;-0.70;59.20
27114;DHT22;14648;49.730;8.614;2022-12-19T01:06:39;-0.70;59.20
27114;DHT22;14648;49.730;8.614;2022-12-19T01:09:10;-0.70;59.30
27114;DHT22;14648;49.730;8.614;2022-12-19T01:11:36;-0.60;59.20
27114;DHT22;14648;49.730;8.614;2022-12-19T01:14:21;-0.60;59.20
27114;DHT22;14648;49.730;8.614;2022-12-19T01:16:47;-0.60;59.20
27114;DHT22;14648;49.730;8.614;2022-12-19T01:19:12;-0.60;59.30
27114;DHT22;14648;49.730;8.614;2022-12-19T01:21:38;-0.60;59.20
27114;DHT22;14648;49.730;8.614;2022-12-19T01:24:04;-0.60;59.30
27114;DHT22;14648;49.730;8.614;2022-12-19T01:26:30;-0.60;59.30
27114;DHT22;14648;49.730;8.614;2022-12-19T01:28:56;-0.50;59.40
27114;DHT22;14648;49.730;8.614;2022-12-19T01:31:21;-0.60;59.40
27114;DHT22;14648;49.730;8.614;2022-12-19T01:33:47;-0.50;59.50
27114;DHT22;14648;49.730;8.614;2022-12-19T01:36:13;-0.50;59.50
27114;DHT22;14648;49.730;8.614;2022-12-19T01:38:38;-0.50;59.50
27114;DHT22;14648;49.730;8.614;2022-12-19T01:41:04;-0.50;59.50
27114;DHT22;14648;49.730;8.614;2022-12-19T01:43:32;-0.50;59.60
27114;DHT22;14648;49.730;8.614;2022-12-19T01:46:40;-0.50;59.60
27114;DHT22;14648;49.730;8.614;2022-12-19T01:49:31;-0.50;59.60
27114;DHT22;14648;49.730;8.614;2022-12-19T01:52:00;-0.40;59.60
27114;DHT22;14648;49.730;8.614;2022-12-19T01:54:36;-0.40;59.60
27114;DHT22;14648;49.730;8.614;2022-12-19T01:57:07;-0.40;59.60
27114;DHT22;14648;49.730;8.614;2022-12-19T01:59:45;-0.40;59.60
27114;DHT22;14648;49.730;8.614;2022-12-19T02:02:24;-0.30;59.60
27114;DHT22;14648;49.730;8.614;2022-12-19T02:04:58;-0.30;59.60
27114;DHT22;14648;49.730;8.614;2022-12-19T02:07:26;-0.30;59.70
27114;DHT22;14648;49.730;8.614;2022-12-19T02:09:55;-0.30;59.60
27114;DHT22;14648;49.730;8.614;2022-12-19T02:12:27;-0.30;59.70
27114;DHT22;14648;49.730;8.614;2022-12-19T02:14:56;-0.30;59.80
27114;DHT22;14648;49.730;8.614;2022-12-19T02:17:37;-0.30;59.80
27114;DHT22;14648;49.730;8.614;2022-12-19T02:31:34;-0.20;59.90
27114;DHT22;14648;49.730;8.614;2022-12-19T02:34:24;-0.20;59.90
27114;DHT22;14648;49.730;8.614;2022-12-19T02:37:02;-0.20;59.80
27114;DHT22;14648;49.730;8.614;2022-12-19T02:39:42;-0.20;59.80
27114;DHT22;14648;49.730;8.614;2022-12-19T02:42:34;-0.20;59.80
27114;DHT22;14648;49.730;8.614;2022-12-19T02:45:04;-0.20;59.90
27114;DHT22;14648;49.730;8.614;2022-12-19T02:47:33;-0.10;60.10
27114;DHT22;14648;49.730;8.614;2022-12-19T02:50:00;-0.10;60.10
27114;DHT22;14648;49.730;8.614;2022-12-19T02:54:56;-0.10;60.20
27114;DHT22;14648;49.730;8.614;2022-12-19T02:57:27;-0.10;60.20
27114;DHT22;14648;49.730;8.614;2022-12-19T03:00:10;-0.10;60.20
27114;DHT22;14648;49.730;8.614;2022-12-19T03:03:02;-0.10;60.20
27114;DHT22;14648;49.730;8.614;2022-12-19T03:08:54;0.00;60.20
27114;DHT22;14648;49.730;8.614;2022-12-19T03:11:45;0.00;60.20
27114;DHT22;14648;49.730;8.614;2022-12-19T03:14:16;0.00;60.90
27114;DHT22;14648;49.730;8.614;2022-12-19T03:16:43;0.00;60.20
27114;DHT22;14648;49.730;8.614;2022-12-19T03:19:12;0.00;60.20
27114;DHT22;14648;49.730;8.614;2022-12-19T03:21:42;0.00;60.30
27114;DHT22;14648;49.730;8.614;2022-12-19T03:24:10;0.10;60.40
27114;DHT22;14648;49.730;8.614;2022-12-19T03:29:33;0.10;60.50
27114;DHT22;14648;49.730;8.614;2022-12-19T03:32:03;0.10;60.50
27114;DHT22;14648;49.730;8.614;2022-12-19T03:34:40;0.20;60.50
27114;DHT22;14648;49.730;8.614;2022-12-19T03:37:14;0.10;60.50
27114;DHT22;14648;49.730;8.614;2022-12-19T03:39:46;0.10;60.60
27114;DHT22;14648;49.730;8.614;2022-12-19T03:42:16;0.10;60.60
27114;DHT22;14648;49.730;8.614;2022-12-19T03:45:03;0.10;60.70
27114;DHT22;14648;49.730;8.614;2022-12-19T03:47:37;0.10;60.80
27114;DHT22;14648;49.730;8.614;2022-12-19T03:50:05;0.10;60.80
27114;DHT22;14648;49.730;8.614;2022-12-19T03:52:40;0.10;60.80
27114;DHT22;14648;49.730;8.614;2022-12-19T03:55:17;0.10;60.90
27114;DHT22;14648;49.730;8.614;2022-12-19T03:57:55;0.10;60.80
27114;DHT22;14648;49.730;8.614;2022-12-19T04:00:23;0.10;60.90
27114;DHT22;14648;49.730;8.614;2022-12-19T04:02:53;0.10;61.00
27114;DHT22;14648;49.730;8.614;2022-12-19T04:05:23;0.10;61.30
27114;DHT22;14648;49.730;8.614;2022-12-19T04:07:54;0.10;61.20
27114;DHT22;14648;49.730;8.614;2022-12-19T04:10:24;0.10;61.30
27114;DHT22;14648;49.730;8.614;2022-12-19T04:13:07;0.20;61.20
27114;DHT22;14648;49.730;8.614;2022-12-19T04:18:17;0.20;61.20
27114;DHT22;14648;49.730;8.614;2022-12-19T04:20:48;0.20;61.20
27114;DHT22;14648;49.730;8.614;2022-12-19T04:23:22;0.20;61.20
27114;DHT22;14648;49.730;8.614;2022-12-19T04:26:02;0.30;61.40
27114;DHT22;14648;49.730;8.614;2022-12-19T04:28:46;0.30;61.40
27114;DHT22;14648;49.730;8.614;2022-12-19T04:31:15;0.30;61.50
27114;DHT22;14648;49.730;8.614;2022-12-19T04:33:41;0.30;61.50
27114;DHT22;14648;49.730;8.614;2022-12-19T04:36:07;0.30;61.60
27114;DHT22;14648;49.730;8.614;2022-12-19T04:38:34;0.30;61.50
27114;DHT22;14648;49.730;8.614;2022-12-19T04:41:02;0.40;61.60
27114;DHT22;14648;49.730;8.614;2022-12-19T04:43:28;0.40;61.60
27114;DHT22;14648;49.730;8.614;2022-12-19T04:45:54;0.40;61.60
27114;DHT22;14648;49.730;8.614;2022-12-19T04:48:19;0.40;61.50
27114;DHT22;14648;49.730;8.614;2022-12-19T04:50:45;0.40;61.70
27114;DHT22;14648;49.730;8.614;2022-12-19T04:53:11;0.40;61.70
27114;DHT22;14648;49.730;8.614;2022-12-19T04:55:36;0.40;61.70
27114;DHT22;14648;49.730;8.614;2022-12-19T04:58:06;0.40;61.80
27114;DHT22;14648;49.730;8.614;2022-12-19T05:00:32;0.40;61.80
27114;DHT22;14648;49.730;8.614;2022-12-19T05:02:58;0.40;61.70
27114;DHT22;14648;49.730;8.614;2022-12-19T05:05:24;0.40;61.70
27114;DHT22;14648;49.730;8.614;2022-12-19T05:07:57;0.50;61.80
27114;DHT22;14648;49.730;8.614;2022-12-19T05:10:22;0.50;61.60
27114;DHT22;14648;49.730;8.614;2022-12-19T05:12:48;0.50;61.60
27114;DHT22;14648;49.730;8.614;2022-12-19T05:15:15;0.40;61.50
27114;DHT22;14648;49.730;8.614;2022-12-19T05:17:41;0.50;61.50
27114;DHT22;14648;49.730;8.614;2022-12-19T05:20:07;0.50;61.50
27114;DHT22;14648;49.730;8.614;2022-12-19T05:22:33;0.50;61.50
27114;DHT22;14648;49.730;8.614;2022-12-19T05:24:59;0.50;61.50
27114;DHT22;14648;49.730;8.614;2022-12-19T05:27:25;0.50;61.50
27114;DHT22;14648;49.730;8.614;2022-12-19T05:29:50;0.50;61.50
27114;DHT22;14648;49.730;8.614;2022-12-19T05:32:16;0.50;61.50
27114;DHT22;14648;49.730;8.614;2022-12-19T05:34:42;0.60;61.50
27114;DHT22;14648;49.730;8.614;2022-12-19T05:37:07;0.60;61.50
27114;DHT22;14648;49.730;8.614;2022-12-19T05:39:33;0.60;61.50
27114;DHT22;14648;49.730;8.614;2022-12-19T05:41:59;0.60;61.60
27114;DHT22;14648;49.730;8.614;2022-12-19T05:44:25;0.60;61.60
27114;DHT22;14648;49.730;8.614;2022-12-19T05:46:50;0.70;61.70
27114;DHT22;14648;49.730;8.614;2022-12-19T05:49:16;0.60;61.60
27114;DHT22;14648;49.730;8.614;2022-12-19T05:51:41;0.70;61.70
27114;DHT22;14648;49.730;8.614;2022-12-19T05:54:07;0.70;61.70
27114;DHT22;14648;49.730;8.614;2022-12-19T05:56:33;0.70;61.70
27114;DHT22;14648;49.730;8.614;2022-12-19T05:58:58;0.70;61.80
27114;DHT22;14648;49.730;8.614;2022-12-19T06:01:26;0.80;61.80
27114;DHT22;14648;49.730;8.614;2022-12-19T06:03:53;0.70;61.80
27114;DHT22;14648;49.730;8.614;2022-12-19T06:06:21;0.70;61.80
27114;DHT22;14648;49.730;8.614;2022-12-19T06:08:56;0.80;61.80
27114;DHT22;14648;49.730;8.614;2022-12-19T06:11:23;0.80;61.90
27114;DHT22;14648;49.730;8.614;2022-12-19T06:13:50;0.80;62.10
27114;DHT22;14648;49.730;8.614;2022-12-19T06:16:18;0.80;61.80
27114;DHT22;14648;49.730;8.614;2022-12-19T06:18:45;0.80;61.80
27114;DHT22;14648;49.730;8.614;2022-12-19T06:21:13;0.90;62.00
27114;DHT22;14648;49.730;8.614;2022-12-19T06:23:40;0.90;61.90
27114;DHT22;14648;49.730;8.614;2022-12-19T06:26:07;0.90;61.80
27114;DHT22;14648;49.730;8.614;2022-12-19T06:28:35;0.90;61.80
27114;DHT22;14648;49.730;8.614;2022-12-19T06:31:04;0.90;61.80
27114;DHT22;14648;49.730;8.614;2022-12-19T06:33:31;1.00;61.70
27114;DHT22;14648;49.730;8.614;2022-12-19T06:38:27;1.00;61.60
27114;DHT22;14648;49.730;8.614;2022-12-19T06:40:54;1.00;62.30
27114;DHT22;14648;49.730;8.614;2022-12-19T06:43:38;1.00;61.50
27114;DHT22;14648;49.730;8.614;2022-12-19T06:46:04;1.10;61.60
27114;DHT22;14648;49.730;8.614;2022-12-19T06:48:30;1.10;61.50
27114;DHT22;14648;49.730;8.614;2022-12-19T06:50:56;1.10;61.50
27114;DHT22;14648;49.730;8.614;2022-12-19T06:53:21;1.10;61.40
27114;DHT22;14648;49.730;8.614;2022-12-19T06:55:49;1.10;61.50
27114;DHT22;14648;49.730;8.614;2022-12-19T06:58:21;1.20;61.50
27114;DHT22;14648;49.730;8.614;2022-12-19T07:00:47;1.20;61.40
27114;DHT22;14648;49.730;8.614;2022-12-19T07:03:17;1.30;61.50
27114;DHT22;14648;49.730;8.614;2022-12-19T07:05:45;1.30;61.40
27114;DHT22;14648;49.730;8.614;2022-12-19T07:08:11;1.40;61.40
27114;DHT22;14648;49.730;8.614;2022-12-19T07:10:37;1.50;61.40
27114;DHT22;14648;49.730;8.614;2022-12-19T07:13:02;1.60;61.20
27114;DHT22;14648;49.730;8.614;2022-12-19T07:15:30;1.70;61.10
27114;DHT22;14648;49.730;8.614;2022-12-19T07:17:59;1.80;61.10
27114;DHT22;14648;49.730;8.614;2022-12-19T07:20:26;1.90;61.10
27114;DHT22;14648;49.730;8.614;2022-12-19T07:22:53;2.00;61.00
27114;DHT22;14648;49.730;8.614;2022-12-19T07:25:19;2.00;61.00
27114;DHT22;14648;49.730;8.614;2022-12-19T07:27:45;2.10;61.10
27114;DHT22;14648;49.730;8.614;2022-12-19T07:30:12;2.10;61.10
27114;DHT22;14648;49.730;8.614;2022-12-19T07:32:38;2.20;61.20
27114;DHT22;14648;49.730;8.614;2022-12-19T07:35:08;2.20;61.40
27114;DHT22;14648;49.730;8.614;2022-12-19T07:37:34;2.30;61.50
27114;DHT22;14648;49.730;8.614;2022-12-19T07:40:00;2.30;61.40
27114;DHT22;14648;49.730;8.614;2022-12-19T07:42:27;2.40;61.40
27114;DHT22;14648;49.730;8.614;2022-12-19T07:44:52;2.50;61.50
27114;DHT22;14648;49.730;8.614;2022-12-19T07:47:19;2.60;61.40
27114;DHT22;14648;49.730;8.614;2022-12-19T07:49:44;2.60;61.30
27114;DHT22;14648;49.730;8.614;2022-12-19T07:52:10;2.70;61.30
27114;DHT22;14648;49.730;8.614;2022-12-19T07:54:36;2.80;61.20
27114;DHT22;14648;49.730;8.614;2022-12-19T07:57:02;2.90;61.20
27114;DHT22;14648;49.730;8.614;2022-12-19T07:59:27;2.90;61.20
27114;DHT22;14648;49.730;8.614;2022-12-19T08:01:53;3.00;61.20
27114;DHT22;14648;49.730;8.614;2022-12-19T08:04:19;3.00;61.20
27114;DHT22;14648;49.730;8.614;2022-12-19T08:06:44;3.00;61.40
27114;DHT22;14648;49.730;8.614;2022-12-19T08:09:11;3.10;61.50
27114;DHT22;14648;49.730;8.614;2022-12-19T08:11:37;3.10;61.60
27114;DHT22;14648;49.730;8.614;2022-12-19T08:14:04;3.10;61.70
27114;DHT22;14648;49.730;8.614;2022-12-19T08:16:30;3.10;61.70
27114;DHT22;14648;49.730;8.614;2022-12-19T08:18:58;3.10;61.90
27114;DHT22;14648;49.730;8.614;2022-12-19T08:21:25;3.10;62.00
27114;DHT22;14648;49.730;8.614;2022-12-19T08:23:51;3.20;61.90
27114;DHT22;14648;49.730;8.614;2022-12-19T08:26:18;3.20;61.80
27114;DHT22;14648;49.730;8.614;2022-12-19T08:28:53;3.30;61.80
27114;DHT22;14648;49.730;8.614;2022-12-19T08:31:22;3.30;61.80
27114;DHT22;14648;49.730;8.614;2022-12-19T08:33:50;3.30;62.20
27114;DHT22;14648;49.730;8.614;2022-12-19T08:36:17;3.40;61.80
27114;DHT22;14648;49.730;8.614;2022-12-19T08:38:47;3.30;61.90
27114;DHT22;14648;49.730;8.614;2022-12-19T08:41:15;3.40;61.80
27114;DHT22;14648;49.730;8.614;2022-12-19T08:43:41;3.50;61.80
27114;DHT22;14648;49.730;8.614;2022-12-19T08:46:08;3.60;61.60
27114;DHT22;14648;49.730;8.614;2022-12-19T08:48:35;3.60;61.50
27114;DHT22;14648;49.730;8.614;2022-12-19T08:51:03;3.70;61.60
27114;DHT22;14648;49.730;8.614;2022-12-19T08:53:33;3.70;61.50
27114;DHT22;14648;49.730;8.614;2022-12-19T08:56:05;3.70;61.40
27114;DHT22;14648;49.730;8.614;2022-12-19T08:58:34;3.80;61.40
27114;DHT22;14648;49.730;8.614;2022-12-19T09:01:07;3.80;61.50
27114;DHT22;14648;49.730;8.614;2022-12-19T09:03:35;3.80;61.60
27114;DHT22;14648;49.730;8.614;2022-12-19T09:06:04;3.80;61.70
27114;DHT22;14648;49.730;8.614;2022-12-19T09:08:32;3.80;61.60
27114;DHT22;14648;49.730;8.614;2022-12-19T09:11:00;3.90;61.70
27114;DHT22;14648;49.730;8.614;2022-12-19T09:13:29;3.90;61.60
27114;DHT22;14648;49.730;8.614;2022-12-19T09:16:00;3.90;61.60
27114;DHT22;14648;49.730;8.614;2022-12-19T09:18:28;4.00;61.50
27114;DHT22;14648;49.730;8.614;2022-12-19T09:20:55;4.00;61.40
27114;DHT22;14648;49.730;8.614;2022-12-19T09:23:23;4.00;61.40
27114;DHT22;14648;49.730;8.614;2022-12-19T09:25:52;4.00;61.50
27114;DHT22;14648;49.730;8.614;2022-12-19T09:28:20;4.00;61.60
27114;DHT22;14648;49.730;8.614;2022-12-19T09:30:59;4.00;61.60
27114;DHT22;14648;49.730;8.614;2022-12-19T09:33:26;3.90;61.70
27114;DHT22;14648;49.730;8.614;2022-12-19T09:35:54;3.90;62.00
27114;DHT22;14648;49.730;8.614;2022-12-19T09:38:21;3.90;61.80
27114;DHT22;14648;49.730;8.614;2022-12-19T09:43:27;3.90;61.80
27114;DHT22;14648;49.730;8.614;2022-12-19T09:46:18;3.90;61.70
27114;DHT22;14648;49.730;8.614;2022-12-19T09:48:45;3.90;61.60
27114;DHT22;14648;49.730;8.614;2022-12-19T09:54:25;3.60;62.00
27114;DHT22;14648;49.730;8.614;2022-12-19T09:57:00;3.50;62.40
27114;DHT22;14648;49.730;8.614;2022-12-19T09:59:50;3.40;62.60
27114;DHT22;14648;49.730;8.614;2022-12-19T10:02:49;3.40;62.70
27114;DHT22;14648;49.730;8.614;2022-12-19T10:05:38;3.30;62.90
27114;DHT22;14648;49.730;8.614;2022-12-19T10:08:20;3.30;63.10
27114;DHT22;14648;49.730;8.614;2022-12-19T10:11:07;3.30;63.10
27114;DHT22;14648;49.730;8.614;2022-12-19T10:16:59;3.20;63.10
27114;DHT22;14648;49.730;8.614;2022-12-19T10:20:11;3.20;63.20
27114;DHT22;14648;49.730;8.614;2022-12-19T10:26:03;3.20;63.10
27114;DHT22;14648;49.730;8.614;2022-12-19T10:29:34;3.20;63.10
27114;DHT22;14648;49.730;8.614;2022-12-19T10:32:06;3.20;63.20
27114;DHT22;14648;49.730;8.614;2022-12-19T10:34:42;3.20;63.20
27114;DHT22;14648;49.730;8.614;2022-12-19T10:37:37;3.20;63.20
27114;DHT22;14648;49.730;8.614;2022-12-19T10:40:13;3.20;63.30
27114;DHT22;14648;49.730;8.614;2022-12-19T10:43:12;3.20;63.30
27114;DHT22;14648;49.730;8.614;2022-12-19T10:45:53;3.20;63.30
27114;DHT22;14648;49.730;8.614;2022-12-19T10:48:21;3.20;63.30
27114;DHT22;14648;49.730;8.614;2022-12-19T10:50:47;3.20;63.40
27114;DHT22;14648;49.730;8.614;2022-12-19T10:53:15;3.20;63.40
27114;DHT22;14648;49.730;8.614;2022-12-19T10:55:50;3.20;63.40
27114;DHT22;14648;49.730;8.614;2022-12-19T10:58:32;3.30;63.50
27114;DHT22;14648;49.730;8.614;2022-12-19T11:04:13;3.30;63.60
27114;DHT22;14648;49.730;8.614;2022-12-19T11:07:16;3.20;63.50
27114;DHT22;14648;49.730;8.614;2022-12-19T11:09:46;3.20;63.50
27114;DHT22;14648;49.730;8.614;2022-12-19T11:12:15;3.20;63.40
27114;DHT22;14648;49.730;8.614;2022-12-19T11:15:11;3.20;63.60
27114;DHT22;14648;49.730;8.614;2022-12-19T11:17:39;3.20;63.70
27114;DHT22;14648;49.730;8.614;2022-12-19T11:20:17;3.20;63.60
27114;DHT22;14648;49.730;8.614;2022-12-19T11:22:52;3.20;63.70
27114;DHT22;14648;49.730;8.614;2022-12-19T11:25:24;3.20;63.80
27114;DHT22;14648;49.730;8.614;2022-12-19T11:27:57;3.20;63.80
27114;DHT22;14648;49.730;8.614;2022-12-19T11:30:26;3.10;64.60
27114;DHT22;14648;49.730;8.614;2022-12-19T11:33:15;3.20;63.90
27114;DHT22;14648;49.730;8.614;2022-12-19T11:36:01;3.20;64.10
27114;DHT22;14648;49.730;8.614;2022-12-19T11:38:49;3.20;64.00
27114;DHT22;14648;49.730;8.614;2022-12-19T11:41:50;3.30;64.10
27114;DHT22;14648;49.730;8.614;2022-12-19T11:44:28;3.30;64.10
27114;DHT22;14648;49.730;8.614;2022-12-19T11:47:24;3.30;64.10
27114;DHT22;14648;49.730;8.614;2022-12-19T11:49:59;3.30;64.20
27114;DHT22;14648;49.730;8.614;2022-12-19T11:52:42;3.30;64.10
27114;DHT22;14648;49.730;8.614;2022-12-19T11:57:54;3.40;64.20
27114;DHT22;14648;49.730;8.614;2022-12-19T12:00:23;3.40;64.20
27114;DHT22;14648;49.730;8.614;2022-12-19T12:05:51;3.40;64.30
27114;DHT22;14648;49.730;8.614;2022-12-19T12:08:45;3.50;64.50
27114;DHT22;14648;49.730;8.614;2022-12-19T12:11:43;3.50;64.50
27114;DHT22;14648;49.730;8.614;2022-12-19T12:14:28;3.50;64.50
27114;DHT22;14648;49.730;8.614;2022-12-19T12:25:58;3.50;64.60
27114;DHT22;14648;49.730;8.614;2022-12-19T12:32:24;3.60;64.50
27114;DHT22;14648;49.730;8.614;2022-12-19T12:35:29;3.60;64.50
27114;DHT22;14648;49.730;8.614;2022-12-19T12:38:09;3.60;64.50
27114;DHT22;14648;49.730;8.614;2022-12-19T12:44:05;3.70;64.60
27114;DHT22;14648;49.730;8.614;2022-12-19T12:46:39;3.70;64.70
27114;DHT22;14648;49.730;8.614;2022-12-19T12:49:33;3.70;64.70
27114;DHT22;14648;49.730;8.614;2022-12-19T12:52:05;3.70;64.80
27114;DHT22;14648;49.730;8.614;2022-12-19T12:54:38;3.70;64.80
27114;DHT22;14648;49.730;8.614;2022-12-19T12:57:18;3.80;64.90
27114;DHT22;14648;49.730;8.614;2022-12-19T13:03:04;3.90;65.00
27114;DHT22;14648;49.730;8.614;2022-12-19T13:06:06;3.90;65.00
27114;DHT22;14648;49.730;8.614;2022-12-19T13:08:47;3.90;65.10
27114;DHT22;14648;49.730;8.614;2022-12-19T13:17:05;4.00;65.00
27114;DHT22;14648;49.730;8.614;2022-12-19T13:19:53;4.00;65.00
27114;DHT22;14648;49.730;8.614;2022-12-19T13:24:57;4.00;65.20
27114;DHT22;14648;49.730;8.614;2022-12-19T13:27:31;3.90;65.20
27114;DHT22;14648;49.730;8.614;2022-12-19T13:37:40;3.90;65.30
27114;DHT22;14648;49.730;8.614;2022-12-19T13:40:30;3.90;65.40
27114;DHT22;14648;49.730;8.614;2022-12-19T13:43:07;3.90;65.40
27114;DHT22;14648;49.730;8.614;2022-12-19T13:46:02;3.90;65.30
27114;DHT22;14648;49.730;8.614;2022-12-19T13:48:49;3.90;65.20
27114;DHT22;14648;49.730;8.614;2022-12-19T13:51:19;3.80;65.20
27114;DHT22;14648;49.730;8.614;2022-12-19T13:53:53;3.90;65.20
27114;DHT22;14648;49.730;8.614;2022-12-19T13:56:20;3.80;65.20
27114;DHT22;14648;49.730;8.614;2022-12-19T13:58:49;3.80;65.20
27114;DHT22;14648;49.730;8.614;2022-12-19T14:01:33;3.80;65.20
27114;DHT22;14648;49.730;8.614;2022-12-19T14:04:06;3.80;65.40
27114;DHT22;14648;49.730;8.614;2022-12-19T14:06:45;3.80;65.30
27114;DHT22;14648;49.730;8.614;2022-12-19T14:09:21;3.70;65.40
27114;DHT22;14648;49.730;8.614;2022-12-19T14:11:51;3.80;65.30
27114;DHT22;14648;49.730;8.614;2022-12-19T14:14:19;3.70;65.20
27114;DHT22;14648;49.730;8.614;2022-12-19T14:17:19;3.70;65.40
27114;DHT22;14648;49.730;8.614;2022-12-19T14:19:51;3.70;65.40
27114;DHT22;14648;49.730;8.614;2022-12-19T14:27:36;3.60;65.40
27114;DHT22;14648;49.730;8.614;2022-12-19T14:30:06;3.50;65.50
27114;DHT22;14648;49.730;8.614;2022-12-19T14:32:38;3.50;65.50
27114;DHT22;14648;49.730;8.614;2022-12-19T14:35:11;3.50;65.60
27114;DHT22;14648;49.730;8.614;2022-12-19T14:37:46;3.50;65.50
27114;DHT22;14648;49.730;8.614;2022-12-19T14:40:28;3.50;65.40
27114;DHT22;14648;49.730;8.614;2022-12-19T14:43:25;3.40;65.30
27114;DHT22;14648;49.730;8.614;2022-12-19T14:48:53;3.40;65.20
27114;DHT22;14648;49.730;8.614;2022-12-19T14:51:37;3.40;65.20
27114;DHT22;14648;49.730;8.614;2022-12-19T14:54:23;3.30;65.20
27114;DHT22;14648;49.730;8.614;2022-12-19T14:57:00;3.30;65.20
27114;DHT22;14648;49.730;8.614;2022-12-19T14:59:31;3.30;65.20
27114;DHT22;14648;49.730;8.614;2022-12-19T15:04:35;3.20;65.10
27114;DHT22;14648;49.730;8.614;2022-12-19T15:07:14;3.20;65.10
27114;DHT22;14648;49.730;8.614;2022-12-19T15:18:41;3.00;65.00
27114;DHT22;14648;49.730;8.614;2022-12-19T15:21:09;3.00;65.00
27114;DHT22;14648;49.730;8.614;2022-12-19T15:23:37;2.90;65.80
27114;DHT22;14648;49.730;8.614;2022-12-19T15:26:11;2.90;65.00
27114;DHT22;14648;49.730;8.614;2022-12-19T15:28:43;2.80;64.90
27114;DHT22;14648;49.730;8.614;2022-12-19T15:31:34;2.80;65.00
27114;DHT22;14648;49.730;8.614;2022-12-19T15:34:23;2.70;65.10
27114;DHT22;14648;49.730;8.614;2022-12-19T15:36:51;2.70;65.20
27114;DHT22;14648;49.730;8.614;2022-12-19T15:39:19;2.60;64.90
27114;DHT22;14648;49.730;8.614;2022-12-19T15:41:49;2.60;65.00
27114;DHT22;14648;49.730;8.614;2022-12-19T15:44:38;2.60;65.00
27114;DHT22;14648;49.730;8.614;2022-12-19T15:49:48;2.50;65.00
27114;DHT22;14648;49.730;8.614;2022-12-19T15:52:17;2.40;65.00
27114;DHT22;14648;49.730;8.614;2022-12-19T15:54:44;2.40;65.10
27114;DHT22;14648;49.730;8.614;2022-12-19T15:57:20;2.40;65.10
27114;DHT22;14648;49.730;8.614;2022-12-19T15:59:52;2.40;65.10
27114;DHT22;14648;49.730;8.614;2022-12-19T16:02:24;2.30;65.10
27114;DHT22;14648;49.730;8.614;2022-12-19T16:04:51;2.30;65.20
27114;DHT22;14648;49.730;8.614;2022-12-19T16:07:20;2.20;65.10
27114;DHT22;14648;49.730;8.614;2022-12-19T16:09:47;2.20;65.20
27114;DHT22;14648;49.730;8.614;2022-12-19T16:12:26;2.20;65.10
27114;DHT22;14648;49.730;8.614;2022-12-19T16:14:57;2.20;65.30
27114;DHT22;14648;49.730;8.614;2022-12-19T16:17:24;2.20;65.20
27114;DHT22;14648;49.730;8.614;2022-12-19T16:19:51;2.20;65.20
27114;DHT22;14648;49.730;8.614;2022-12-19T16:22:23;2.20;65.20
27114;DHT22;14648;49.730;8.614;2022-12-19T16:24:51;2.20;65.30
27114;DHT22;14648;49.730;8.614;2022-12-19T16:27:35;2.20;65.20
27114;DHT22;14648;49.730;8.614;2022-12-19T16:30:14;2.10;65.30
27114;DHT22;14648;49.730;8.614;2022-12-19T16:32:44;2.10;65.30
27114;DHT22;14648;49.730;8.614;2022-12-19T16:35:29;2.10;65.20
27114;DHT22;14648;49.730;8.614;2022-12-19T16:37:54;2.10;65.40
27114;DHT22;14648;49.730;8.614;2022-12-19T16:40:23;2.10;65.40
27114;DHT22;14648;49.730;8.614;2022-12-19T16:43:02;2.10;65.40
27114;DHT22;14648;49.730;8.614;2022-12-19T16:45:30;2.10;65.40
27114;DHT22;14648;49.730;8.614;2022-12-19T16:47:58;2.10;65.40
27114;DHT22;14648;49.730;8.614;2022-12-19T16:50:28;2.10;65.40
27114;DHT22;14648;49.730;8.614;2022-12-19T16:52:55;2.00;65.40
27114;DHT22;14648;49.730;8.614;2022-12-19T16:55:23;2.00;65.40
27114;DHT22;14648;49.730;8.614;2022-12-19T16:57:51;2.00;65.50
27114;DHT22;14648;49.730;8.614;2022-12-19T17:00:21;2.00;65.50
27114;DHT22;14648;49.730;8.614;2022-12-19T17:05:26;2.00;65.60
27114;DHT22;14648;49.730;8.614;2022-12-19T17:07:55;2.00;65.50
27114;DHT22;14648;49.730;8.614;2022-12-19T17:10:26;2.00;65.60
27114;DHT22;14648;49.730;8.614;2022-12-19T17:12:54;2.00;65.50
27114;DHT22;14648;49.730;8.614;2022-12-19T17:15:26;2.00;65.60
27114;DHT22;14648;49.730;8.614;2022-12-19T17:17:55;2.00;65.60
27114;DHT22;14648;49.730;8.614;2022-12-19T17:20:25;2.00;65.60
27114;DHT22;14648;49.730;8.614;2022-12-19T17:22:52;2.00;65.60
27114;DHT22;14648;49.730;8.614;2022-12-19T17:25:21;2.00;65.60
27114;DHT22;14648;49.730;8.614;2022-12-19T17:27:49;2.00;65.70
27114;DHT22;14648;49.730;8.614;2022-12-19T17:30:16;2.00;65.70
27114;DHT22;14648;49.730;8.614;2022-12-19T17:32:43;2.00;65.80
27114;DHT22;14648;49.730;8.614;2022-12-19T17:35:19;2.00;67.10
27114;DHT22;14648;49.730;8.614;2022-12-19T17:37:56;2.00;66.80
27114;DHT22;14648;49.730;8.614;2022-12-19T17:40:28;2.10;66.70
27114;DHT22;14648;49.730;8.614;2022-12-19T17:42:55;2.10;66.60
27114;DHT22;14648;49.730;8.614;2022-12-19T17:45:23;2.10;66.50
27114;DHT22;14648;49.730;8.614;2022-12-19T17:48:00;2.10;66.50
27114;DHT22;14648;49.730;8.614;2022-12-19T17:50:36;2.10;66.50
27114;DHT22;14648;49.730;8.614;2022-12-19T17:53:02;2.10;66.40
27114;DHT22;14648;49.730;8.614;2022-12-19T17:55:29;2.10;66.40
27114;DHT22;14648;49.730;8.614;2022-12-19T17:57:55;2.10;66.50
27114;DHT22;14648;49.730;8.614;2022-12-19T18:00:25;2.00;66.30